sensor_id;sensor_type;location;lat;lon;timestamp;P1;durP1;ratioP1;P2;durP2;ratioP2
31872;SDS011;22407;42.820;23.374;2024-03-06T00:01:49;36.20;;;15.52;;
31872;SDS011;22407;42.820;23.374;2024-03-06T00:04:14;20.10;;;9.10;;
31872;SDS011;22407;42.820;23.374;2024-03-06T00:06:40;18.67;;;8.83;;
31872;SDS011;22407;42.820;23.374;2024-03-06T00:09:05;19.52;;;8.02;;
31872;SDS011;22407;42.820;23.374;2024-03-06T00:11:33;19.13;;;8.00;;
31872;SDS011;22407;42.820;23.374;2024-03-06T00:14:01;18.38;;;7.93;;
31872;SDS011;22407;42.820;23.374;2024-03-06T00:16:27;17.15;;;7.45;;
31872;SDS011;22407;42.820;23.374;2024-03-06T00:18:53;17.67;;;7.67;;
31872;SDS011;22407;42.820;23.374;2024-03-06T00:21:18;19.00;;;7.90;;
31872;SDS011;22407;42.820;23.374;2024-03-06T00:23:44;17.23;;;7.97;;
31872;SDS011;22407;42.820;23.374;2024-03-06T00:26:11;31.58;;;10.95;;
31872;SDS011;22407;42.820;23.374;2024-03-06T00:28:38;26.23;;;10.00;;
31872;SDS011;22407;42.820;23.374;2024-03-06T00:31:04;28.73;;;11.80;;
31872;SDS011;22407;42.820;23.374;2024-03-06T00:33:30;24.20;;;10.45;;
31872;SDS011;22407;42.820;23.374;2024-03-06T00:35:56;26.63;;;10.27;;
31872;SDS011;22407;42.820;23.374;2024-03-06T00:38:21;23.90;;;9.10;;
31872;SDS011;22407;42.820;23.374;2024-03-06T00:40:47;29.07;;;13.33;;
31872;SDS011;22407;42.820;23.374;2024-03-06T00:43:12;30.63;;;14.20;;
31872;SDS011;22407;42.820;23.374;2024-03-06T00:45:38;24.85;;;11.35;;
31872;SDS011;22407;42.820;23.374;2024-03-06T00:48:03;28.30;;;13.20;;
31872;SDS011;22407;42.820;23.374;2024-03-06T00:50:29;22.77;;;10.73;;
31872;SDS011;22407;42.820;23.374;2024-03-06T00:52:54;21.45;;;9.52;;
31872;SDS011;22407;42.820;23.374;2024-03-06T00:55:20;22.70;;;9.47;;
31872;SDS011;22407;42.820;23.374;2024-03-06T00:57:45;22.87;;;9.80;;
31872;SDS011;22407;42.820;23.374;2024-03-06T01:00:11;27.50;;;12.23;;
31872;SDS011;22407;42.820;23.374;2024-03-06T01:02:37;27.77;;;13.90;;
31872;SDS011;22407;42.820;23.374;2024-03-06T01:05:03;21.13;;;9.45;;
31872;SDS011;22407;42.820;23.374;2024-03-06T01:07:30;34.05;;;14.77;;
31872;SDS011;22407;42.820;23.374;2024-03-06T01:09:59;36.40;;;16.42;;
31872;SDS011;22407;42.820;23.374;2024-03-06T01:12:25;38.17;;;16.17;;
31872;SDS011;22407;42.820;23.374;2024-03-06T01:14:50;37.67;;;16.15;;
31872;SDS011;22407;42.820;23.374;2024-03-06T01:17:16;38.20;;;15.77;;
31872;SDS011;22407;42.820;23.374;2024-03-06T01:19:41;46.27;;;18.80;;
31872;SDS011;22407;42.820;23.374;2024-03-06T01:22:10;38.40;;;16.45;;
31872;SDS011;22407;42.820;23.374;2024-03-06T01:24:35;34.05;;;14.73;;
31872;SDS011;22407;42.820;23.374;2024-03-06T01:27:01;31.13;;;13.27;;
31872;SDS011;22407;42.820;23.374;2024-03-06T01:29:30;34.05;;;14.23;;
31872;SDS011;22407;42.820;23.374;2024-03-06T01:31:56;31.73;;;13.18;;
31872;SDS011;22407;42.820;23.374;2024-03-06T01:34:21;28.33;;;13.40;;
31872;SDS011;22407;42.820;23.374;2024-03-06T01:36:48;27.92;;;11.98;;
31872;SDS011;22407;42.820;23.374;2024-03-06T01:39:13;28.60;;;12.37;;
31872;SDS011;22407;42.820;23.374;2024-03-06T01:41:45;33.85;;;13.95;;
31872;SDS011;22407;42.820;23.374;2024-03-06T01:44:12;34.38;;;14.65;;
31872;SDS011;22407;42.820;23.374;2024-03-06T01:46:38;28.97;;;12.87;;
31872;SDS011;22407;42.820;23.374;2024-03-06T01:49:03;29.50;;;11.70;;
31872;SDS011;22407;42.820;23.374;2024-03-06T01:51:29;29.33;;;11.52;;
31872;SDS011;22407;42.820;23.374;2024-03-06T01:53:56;29.77;;;11.73;;
31872;SDS011;22407;42.820;23.374;2024-03-06T01:56:22;28.37;;;12.00;;
31872;SDS011;22407;42.820;23.374;2024-03-06T01:58:48;26.92;;;10.90;;
31872;SDS011;22407;42.820;23.374;2024-03-06T02:01:14;26.37;;;10.90;;
31872;SDS011;22407;42.820;23.374;2024-03-06T02:03:41;25.60;;;10.63;;
31872;SDS011;22407;42.820;23.374;2024-03-06T02:06:08;26.15;;;10.93;;
31872;SDS011;22407;42.820;23.374;2024-03-06T02:08:35;25.85;;;11.80;;
31872;SDS011;22407;42.820;23.374;2024-03-06T02:11:03;29.00;;;12.07;;
31872;SDS011;22407;42.820;23.374;2024-03-06T02:13:29;27.33;;;11.60;;
31872;SDS011;22407;42.820;23.374;2024-03-06T02:15:55;26.73;;;11.63;;
31872;SDS011;22407;42.820;23.374;2024-03-06T02:18:24;25.03;;;10.97;;
31872;SDS011;22407;42.820;23.374;2024-03-06T02:20:49;28.13;;;11.60;;
31872;SDS011;22407;42.820;23.374;2024-03-06T02:23:15;25.35;;;10.65;;
31872;SDS011;22407;42.820;23.374;2024-03-06T02:25:44;25.02;;;10.52;;
31872;SDS011;22407;42.820;23.374;2024-03-06T02:28:11;25.40;;;9.97;;
31872;SDS011;22407;42.820;23.374;2024-03-06T02:30:37;22.67;;;9.68;;
31872;SDS011;22407;42.820;23.374;2024-03-06T02:33:03;24.97;;;9.93;;
31872;SDS011;22407;42.820;23.374;2024-03-06T02:35:29;24.10;;;10.13;;
31872;SDS011;22407;42.820;23.374;2024-03-06T02:37:55;22.80;;;9.90;;
31872;SDS011;22407;42.820;23.374;2024-03-06T02:40:24;21.97;;;10.47;;
31872;SDS011;22407;42.820;23.374;2024-03-06T02:42:49;22.50;;;9.52;;
31872;SDS011;22407;42.820;23.374;2024-03-06T02:45:15;25.60;;;11.83;;
31872;SDS011;22407;42.820;23.374;2024-03-06T02:47:40;24.13;;;12.30;;
31872;SDS011;22407;42.820;23.374;2024-03-06T02:50:06;30.63;;;12.93;;
31872;SDS011;22407;42.820;23.374;2024-03-06T02:52:32;24.77;;;10.40;;
31872;SDS011;22407;42.820;23.374;2024-03-06T02:54:58;22.93;;;9.63;;
31872;SDS011;22407;42.820;23.374;2024-03-06T02:57:26;22.63;;;9.10;;
31872;SDS011;22407;42.820;23.374;2024-03-06T02:59:53;21.40;;;9.37;;
31872;SDS011;22407;42.820;23.374;2024-03-06T03:02:19;23.55;;;9.57;;
31872;SDS011;22407;42.820;23.374;2024-03-06T03:04:44;22.30;;;10.00;;
31872;SDS011;22407;42.820;23.374;2024-03-06T03:07:10;20.53;;;9.57;;
31872;SDS011;22407;42.820;23.374;2024-03-06T03:09:35;24.60;;;10.15;;
31872;SDS011;22407;42.820;23.374;2024-03-06T03:12:01;21.43;;;9.53;;
31872;SDS011;22407;42.820;23.374;2024-03-06T03:14:27;22.70;;;8.95;;
31872;SDS011;22407;42.820;23.374;2024-03-06T03:16:52;19.40;;;8.63;;
31872;SDS011;22407;42.820;23.374;2024-03-06T03:19:18;18.05;;;8.35;;
31872;SDS011;22407;42.820;23.374;2024-03-06T03:21:44;21.55;;;8.50;;
31872;SDS011;22407;42.820;23.374;2024-03-06T03:24:10;23.50;;;9.23;;
31872;SDS011;22407;42.820;23.374;2024-03-06T03:26:36;21.42;;;9.68;;
31872;SDS011;22407;42.820;23.374;2024-03-06T03:29:02;21.02;;;8.80;;
31872;SDS011;22407;42.820;23.374;2024-03-06T03:31:28;21.23;;;8.27;;
31872;SDS011;22407;42.820;23.374;2024-03-06T03:33:57;22.90;;;8.93;;
31872;SDS011;22407;42.820;23.374;2024-03-06T03:36:23;22.38;;;8.70;;
31872;SDS011;22407;42.820;23.374;2024-03-06T03:38:50;22.20;;;9.48;;
31872;SDS011;22407;42.820;23.374;2024-03-06T03:41:15;22.10;;;8.93;;
31872;SDS011;22407;42.820;23.374;2024-03-06T03:43:44;23.30;;;9.07;;
31872;SDS011;22407;42.820;23.374;2024-03-06T03:46:10;22.10;;;9.32;;
31872;SDS011;22407;42.820;23.374;2024-03-06T03:48:36;26.10;;;10.60;;
31872;SDS011;22407;42.820;23.374;2024-03-06T03:51:02;41.00;;;13.52;;
31872;SDS011;22407;42.820;23.374;2024-03-06T03:53:34;77.43;;;14.90;;
31872;SDS011;22407;42.820;23.374;2024-03-06T03:56:01;62.13;;;14.65;;
31872;SDS011;22407;42.820;23.374;2024-03-06T03:58:26;33.83;;;15.43;;
31872;SDS011;22407;42.820;23.374;2024-03-06T04:00:52;34.43;;;15.90;;
31872;SDS011;22407;42.820;23.374;2024-03-06T04:03:20;107.70;;;48.40;;
31872;SDS011;22407;42.820;23.374;2024-03-06T04:05:46;51.85;;;23.25;;
31872;SDS011;22407;42.820;23.374;2024-03-06T04:08:12;42.30;;;17.63;;
31872;SDS011;22407;42.820;23.374;2024-03-06T04:10:38;51.27;;;17.30;;
31872;SDS011;22407;42.820;23.374;2024-03-06T04:13:03;37.08;;;16.52;;
31872;SDS011;22407;42.820;23.374;2024-03-06T04:15:29;34.87;;;16.27;;
31872;SDS011;22407;42.820;23.374;2024-03-06T04:17:56;33.65;;;16.00;;
31872;SDS011;22407;42.820;23.374;2024-03-06T04:20:21;34.65;;;14.18;;
31872;SDS011;22407;42.820;23.374;2024-03-06T04:22:47;33.43;;;13.80;;
31872;SDS011;22407;42.820;23.374;2024-03-06T04:25:15;30.83;;;14.02;;
31872;SDS011;22407;42.820;23.374;2024-03-06T04:27:40;43.33;;;16.03;;
31872;SDS011;22407;42.820;23.374;2024-03-06T04:30:06;52.00;;;15.73;;
31872;SDS011;22407;42.820;23.374;2024-03-06T04:32:32;61.33;;;16.75;;
31872;SDS011;22407;42.820;23.374;2024-03-06T04:34:58;70.50;;;20.65;;
31872;SDS011;22407;42.820;23.374;2024-03-06T04:37:24;62.93;;;19.00;;
31872;SDS011;22407;42.820;23.374;2024-03-06T04:39:51;46.22;;;17.30;;
31872;SDS011;22407;42.820;23.374;2024-03-06T04:42:17;66.47;;;19.48;;
31872;SDS011;22407;42.820;23.374;2024-03-06T04:44:45;55.30;;;19.38;;
31872;SDS011;22407;42.820;23.374;2024-03-06T04:47:11;64.00;;;20.00;;
31872;SDS011;22407;42.820;23.374;2024-03-06T04:49:36;94.70;;;21.05;;
31872;SDS011;22407;42.820;23.374;2024-03-06T04:52:02;61.97;;;20.10;;
31872;SDS011;22407;42.820;23.374;2024-03-06T04:54:28;51.83;;;19.27;;
31872;SDS011;22407;42.820;23.374;2024-03-06T04:56:54;66.93;;;19.48;;
31872;SDS011;22407;42.820;23.374;2024-03-06T04:59:20;57.97;;;18.90;;
31872;SDS011;22407;42.820;23.374;2024-03-06T05:01:46;45.58;;;16.50;;
31872;SDS011;22407;42.820;23.374;2024-03-06T05:04:11;49.83;;;18.00;;
31872;SDS011;22407;42.820;23.374;2024-03-06T05:06:37;42.65;;;16.55;;
31872;SDS011;22407;42.820;23.374;2024-03-06T05:09:03;42.27;;;15.27;;
31872;SDS011;22407;42.820;23.374;2024-03-06T05:11:29;42.70;;;15.45;;
31872;SDS011;22407;42.820;23.374;2024-03-06T05:13:59;47.60;;;15.75;;
31872;SDS011;22407;42.820;23.374;2024-03-06T05:16:25;42.30;;;16.85;;
31872;SDS011;22407;42.820;23.374;2024-03-06T05:18:52;39.47;;;15.60;;
31872;SDS011;22407;42.820;23.374;2024-03-06T05:21:17;35.78;;;15.18;;
31872;SDS011;22407;42.820;23.374;2024-03-06T05:23:43;36.88;;;15.70;;
31872;SDS011;22407;42.820;23.374;2024-03-06T05:26:09;38.47;;;16.90;;
31872;SDS011;22407;42.820;23.374;2024-03-06T05:28:34;36.43;;;17.27;;
31872;SDS011;22407;42.820;23.374;2024-03-06T05:31:00;36.45;;;17.48;;
31872;SDS011;22407;42.820;23.374;2024-03-06T05:33:29;38.40;;;16.73;;
31872;SDS011;22407;42.820;23.374;2024-03-06T05:35:55;35.97;;;17.02;;
31872;SDS011;22407;42.820;23.374;2024-03-06T05:38:20;37.33;;;17.07;;
31872;SDS011;22407;42.820;23.374;2024-03-06T05:40:47;39.53;;;18.30;;
31872;SDS011;22407;42.820;23.374;2024-03-06T05:43:12;41.20;;;19.45;;
31872;SDS011;22407;42.820;23.374;2024-03-06T05:45:38;40.60;;;20.13;;
31872;SDS011;22407;42.820;23.374;2024-03-06T05:48:03;45.37;;;21.47;;
31872;SDS011;22407;42.820;23.374;2024-03-06T05:50:30;45.05;;;21.13;;
31872;SDS011;22407;42.820;23.374;2024-03-06T05:52:57;50.95;;;23.45;;
31872;SDS011;22407;42.820;23.374;2024-03-06T05:55:23;53.33;;;22.73;;
31872;SDS011;22407;42.820;23.374;2024-03-06T05:57:48;48.50;;;21.63;;
31872;SDS011;22407;42.820;23.374;2024-03-06T06:00:14;40.63;;;17.10;;
31872;SDS011;22407;42.820;23.374;2024-03-06T06:02:43;38.63;;;17.07;;
31872;SDS011;22407;42.820;23.374;2024-03-06T06:05:10;41.35;;;20.67;;
31872;SDS011;22407;42.820;23.374;2024-03-06T06:07:36;43.07;;;19.47;;
31872;SDS011;22407;42.820;23.374;2024-03-06T06:10:03;49.35;;;22.80;;
31872;SDS011;22407;42.820;23.374;2024-03-06T06:12:33;50.03;;;22.73;;
31872;SDS011;22407;42.820;23.374;2024-03-06T06:14:59;49.50;;;22.23;;
31872;SDS011;22407;42.820;23.374;2024-03-06T06:17:27;50.15;;;20.90;;
31872;SDS011;22407;42.820;23.374;2024-03-06T06:19:53;52.03;;;22.38;;
31872;SDS011;22407;42.820;23.374;2024-03-06T06:22:18;50.60;;;22.27;;
31872;SDS011;22407;42.820;23.374;2024-03-06T06:24:47;49.72;;;21.95;;
31872;SDS011;22407;42.820;23.374;2024-03-06T06:27:13;53.63;;;22.85;;
31872;SDS011;22407;42.820;23.374;2024-03-06T06:29:39;53.43;;;23.03;;
31872;SDS011;22407;42.820;23.374;2024-03-06T06:32:04;54.00;;;24.17;;
31872;SDS011;22407;42.820;23.374;2024-03-06T06:34:30;55.63;;;23.90;;
31872;SDS011;22407;42.820;23.374;2024-03-06T06:36:57;58.13;;;23.92;;
31872;SDS011;22407;42.820;23.374;2024-03-06T06:39:22;57.58;;;25.80;;
31872;SDS011;22407;42.820;23.374;2024-03-06T06:41:48;62.30;;;25.70;;
31872;SDS011;22407;42.820;23.374;2024-03-06T06:44:13;57.03;;;24.03;;
31872;SDS011;22407;42.820;23.374;2024-03-06T06:46:40;70.65;;;30.30;;
31872;SDS011;22407;42.820;23.374;2024-03-06T06:49:08;69.05;;;27.75;;
31872;SDS011;22407;42.820;23.374;2024-03-06T06:51:34;70.17;;;25.33;;
31872;SDS011;22407;42.820;23.374;2024-03-06T06:54:00;59.92;;;24.25;;
31872;SDS011;22407;42.820;23.374;2024-03-06T06:56:26;51.88;;;21.83;;
31872;SDS011;22407;42.820;23.374;2024-03-06T06:58:52;55.28;;;22.60;;
31872;SDS011;22407;42.820;23.374;2024-03-06T07:01:18;51.50;;;21.87;;
31872;SDS011;22407;42.820;23.374;2024-03-06T07:03:45;72.93;;;30.08;;
31872;SDS011;22407;42.820;23.374;2024-03-06T07:06:10;53.70;;;23.27;;
31872;SDS011;22407;42.820;23.374;2024-03-06T07:08:36;66.50;;;34.40;;
31872;SDS011;22407;42.820;23.374;2024-03-06T07:11:02;47.97;;;23.38;;
31872;SDS011;22407;42.820;23.374;2024-03-06T07:13:28;42.20;;;19.90;;
31872;SDS011;22407;42.820;23.374;2024-03-06T07:15:53;42.87;;;20.87;;
31872;SDS011;22407;42.820;23.374;2024-03-06T07:18:19;39.70;;;18.90;;
31872;SDS011;22407;42.820;23.374;2024-03-06T07:20:44;41.40;;;20.50;;
31872;SDS011;22407;42.820;23.374;2024-03-06T07:23:10;40.80;;;19.13;;
31872;SDS011;22407;42.820;23.374;2024-03-06T07:25:36;41.72;;;19.48;;
31872;SDS011;22407;42.820;23.374;2024-03-06T07:28:02;40.80;;;19.60;;
31872;SDS011;22407;42.820;23.374;2024-03-06T07:30:34;44.92;;;20.05;;
31872;SDS011;22407;42.820;23.374;2024-03-06T07:33:00;43.13;;;20.15;;
31872;SDS011;22407;42.820;23.374;2024-03-06T07:35:25;39.37;;;18.50;;
31872;SDS011;22407;42.820;23.374;2024-03-06T07:37:51;41.53;;;19.10;;
31872;SDS011;22407;42.820;23.374;2024-03-06T07:40:16;44.97;;;20.67;;
31872;SDS011;22407;42.820;23.374;2024-03-06T07:42:42;46.63;;;20.47;;
31872;SDS011;22407;42.820;23.374;2024-03-06T07:45:08;44.13;;;21.57;;
31872;SDS011;22407;42.820;23.374;2024-03-06T07:47:34;42.72;;;19.30;;
31872;SDS011;22407;42.820;23.374;2024-03-06T07:49:59;37.88;;;19.55;;
31872;SDS011;22407;42.820;23.374;2024-03-06T07:52:25;40.93;;;20.43;;
31872;SDS011;22407;42.820;23.374;2024-03-06T07:54:51;36.50;;;16.73;;
31872;SDS011;22407;42.820;23.374;2024-03-06T07:57:16;37.80;;;16.90;;
31872;SDS011;22407;42.820;23.374;2024-03-06T07:59:43;36.20;;;16.88;;
31872;SDS011;22407;42.820;23.374;2024-03-06T08:02:09;39.13;;;17.17;;
31872;SDS011;22407;42.820;23.374;2024-03-06T08:04:34;33.22;;;16.65;;
31872;SDS011;22407;42.820;23.374;2024-03-06T08:07:00;39.63;;;18.57;;
31872;SDS011;22407;42.820;23.374;2024-03-06T08:09:26;38.80;;;17.95;;
31872;SDS011;22407;42.820;23.374;2024-03-06T08:11:53;38.20;;;17.05;;
31872;SDS011;22407;42.820;23.374;2024-03-06T08:14:19;32.87;;;15.23;;
31872;SDS011;22407;42.820;23.374;2024-03-06T08:16:45;30.80;;;14.52;;
31872;SDS011;22407;42.820;23.374;2024-03-06T08:19:11;46.10;;;20.38;;
31872;SDS011;22407;42.820;23.374;2024-03-06T08:21:40;34.60;;;16.30;;
31872;SDS011;22407;42.820;23.374;2024-03-06T08:24:06;40.75;;;18.38;;
31872;SDS011;22407;42.820;23.374;2024-03-06T08:26:31;32.97;;;14.65;;
31872;SDS011;22407;42.820;23.374;2024-03-06T08:28:57;30.80;;;13.30;;
31872;SDS011;22407;42.820;23.374;2024-03-06T08:31:22;32.67;;;13.90;;
31872;SDS011;22407;42.820;23.374;2024-03-06T08:33:48;27.43;;;12.70;;
31872;SDS011;22407;42.820;23.374;2024-03-06T08:36:14;27.50;;;12.53;;
31872;SDS011;22407;42.820;23.374;2024-03-06T08:38:39;33.07;;;12.87;;
31872;SDS011;22407;42.820;23.374;2024-03-06T08:41:06;30.67;;;13.30;;
31872;SDS011;22407;42.820;23.374;2024-03-06T08:43:34;33.28;;;14.93;;
31872;SDS011;22407;42.820;23.374;2024-03-06T08:46:00;32.25;;;13.85;;
31872;SDS011;22407;42.820;23.374;2024-03-06T08:48:26;29.70;;;12.90;;
31872;SDS011;22407;42.820;23.374;2024-03-06T08:50:51;30.25;;;13.65;;
31872;SDS011;22407;42.820;23.374;2024-03-06T08:53:17;30.53;;;12.90;;
31872;SDS011;22407;42.820;23.374;2024-03-06T08:55:43;32.63;;;13.75;;
31872;SDS011;22407;42.820;23.374;2024-03-06T08:58:08;26.03;;;11.77;;
31872;SDS011;22407;42.820;23.374;2024-03-06T09:00:34;26.40;;;11.83;;
31872;SDS011;22407;42.820;23.374;2024-03-06T09:03:01;30.58;;;13.00;;
31872;SDS011;22407;42.820;23.374;2024-03-06T09:05:27;31.88;;;13.60;;
31872;SDS011;22407;42.820;23.374;2024-03-06T09:07:52;26.97;;;11.47;;
31872;SDS011;22407;42.820;23.374;2024-03-06T09:10:18;24.27;;;11.50;;
31872;SDS011;22407;42.820;23.374;2024-03-06T09:12:46;33.55;;;14.20;;
31872;SDS011;22407;42.820;23.374;2024-03-06T09:15:12;29.77;;;13.00;;
31872;SDS011;22407;42.820;23.374;2024-03-06T09:17:37;29.13;;;12.85;;
31872;SDS011;22407;42.820;23.374;2024-03-06T09:20:04;26.55;;;11.27;;
31872;SDS011;22407;42.820;23.374;2024-03-06T09:22:38;36.37;;;14.40;;
31872;SDS011;22407;42.820;23.374;2024-03-06T09:25:07;30.95;;;13.27;;
31872;SDS011;22407;42.820;23.374;2024-03-06T09:27:33;28.35;;;12.38;;
31872;SDS011;22407;42.820;23.374;2024-03-06T09:29:58;33.40;;;13.93;;
31872;SDS011;22407;42.820;23.374;2024-03-06T09:32:25;28.60;;;12.40;;
31872;SDS011;22407;42.820;23.374;2024-03-06T09:34:51;32.58;;;13.13;;
31872;SDS011;22407;42.820;23.374;2024-03-06T09:37:17;29.85;;;13.00;;
31872;SDS011;22407;42.820;23.374;2024-03-06T09:39:43;25.55;;;11.88;;
31872;SDS011;22407;42.820;23.374;2024-03-06T09:42:13;30.73;;;12.03;;
31872;SDS011;22407;42.820;23.374;2024-03-06T09:44:40;27.77;;;12.10;;
31872;SDS011;22407;42.820;23.374;2024-03-06T09:47:05;26.75;;;12.35;;
31872;SDS011;22407;42.820;23.374;2024-03-06T09:49:36;27.90;;;11.27;;
31872;SDS011;22407;42.820;23.374;2024-03-06T09:52:02;30.40;;;12.20;;
31872;SDS011;22407;42.820;23.374;2024-03-06T09:54:29;27.60;;;11.80;;
31872;SDS011;22407;42.820;23.374;2024-03-06T09:56:55;23.13;;;10.23;;
31872;SDS011;22407;42.820;23.374;2024-03-06T09:59:22;24.63;;;10.23;;
31872;SDS011;22407;42.820;23.374;2024-03-06T10:04:21;26.38;;;10.20;;
31872;SDS011;22407;42.820;23.374;2024-03-06T10:06:49;25.95;;;10.27;;
31872;SDS011;22407;42.820;23.374;2024-03-06T10:09:18;18.73;;;9.35;;
31872;SDS011;22407;42.820;23.374;2024-03-06T10:11:44;25.88;;;10.95;;
31872;SDS011;22407;42.820;23.374;2024-03-06T10:14:10;19.70;;;9.30;;
31872;SDS011;22407;42.820;23.374;2024-03-06T10:16:37;22.52;;;10.10;;
31872;SDS011;22407;42.820;23.374;2024-03-06T10:19:16;18.88;;;8.77;;
31872;SDS011;22407;42.820;23.374;2024-03-06T10:21:43;21.00;;;8.65;;
31872;SDS011;22407;42.820;23.374;2024-03-06T10:24:20;22.25;;;8.68;;
31872;SDS011;22407;42.820;23.374;2024-03-06T10:26:52;18.90;;;8.03;;
31872;SDS011;22407;42.820;23.374;2024-03-06T10:29:20;17.65;;;8.18;;
31872;SDS011;22407;42.820;23.374;2024-03-06T10:31:57;18.60;;;8.20;;
31872;SDS011;22407;42.820;23.374;2024-03-06T10:34:24;18.45;;;8.18;;
31872;SDS011;22407;42.820;23.374;2024-03-06T10:36:54;18.50;;;7.75;;
31872;SDS011;22407;42.820;23.374;2024-03-06T10:39:21;17.13;;;8.20;;
31872;SDS011;22407;42.820;23.374;2024-03-06T10:41:51;15.95;;;8.32;;
31872;SDS011;22407;42.820;23.374;2024-03-06T10:44:20;18.30;;;8.25;;
31872;SDS011;22407;42.820;23.374;2024-03-06T10:46:47;17.27;;;8.20;;
31872;SDS011;22407;42.820;23.374;2024-03-06T10:49:19;19.55;;;7.97;;
31872;SDS011;22407;42.820;23.374;2024-03-06T10:51:44;23.33;;;9.90;;
31872;SDS011;22407;42.820;23.374;2024-03-06T10:54:11;17.25;;;7.80;;
31872;SDS011;22407;42.820;23.374;2024-03-06T10:56:42;16.35;;;7.28;;
31872;SDS011;22407;42.820;23.374;2024-03-06T10:59:10;14.07;;;6.70;;
31872;SDS011;22407;42.820;23.374;2024-03-06T11:01:37;15.50;;;7.07;;
31872;SDS011;22407;42.820;23.374;2024-03-06T11:04:05;18.23;;;7.30;;
31872;SDS011;22407;42.820;23.374;2024-03-06T11:06:31;13.52;;;6.78;;
31872;SDS011;22407;42.820;23.374;2024-03-06T11:08:56;16.73;;;7.30;;
31872;SDS011;22407;42.820;23.374;2024-03-06T11:11:23;17.00;;;7.35;;
31872;SDS011;22407;42.820;23.374;2024-03-06T11:13:50;13.40;;;6.30;;
31872;SDS011;22407;42.820;23.374;2024-03-06T11:16:29;14.25;;;6.93;;
31872;SDS011;22407;42.820;23.374;2024-03-06T11:19:07;15.90;;;7.03;;
31872;SDS011;22407;42.820;23.374;2024-03-06T11:21:33;20.30;;;7.75;;
31872;SDS011;22407;42.820;23.374;2024-03-06T11:24:12;14.35;;;6.57;;
31872;SDS011;22407;42.820;23.374;2024-03-06T11:26:42;15.07;;;6.97;;
31872;SDS011;22407;42.820;23.374;2024-03-06T11:29:08;14.80;;;6.40;;
31872;SDS011;22407;42.820;23.374;2024-03-06T11:31:34;17.48;;;6.60;;
31872;SDS011;22407;42.820;23.374;2024-03-06T11:34:01;14.65;;;6.20;;
31872;SDS011;22407;42.820;23.374;2024-03-06T11:36:29;14.90;;;6.85;;
31872;SDS011;22407;42.820;23.374;2024-03-06T11:39:08;15.50;;;6.40;;
31872;SDS011;22407;42.820;23.374;2024-03-06T11:44:12;17.77;;;7.10;;
31872;SDS011;22407;42.820;23.374;2024-03-06T11:46:58;15.10;;;6.68;;
31872;SDS011;22407;42.820;23.374;2024-03-06T11:49:29;14.03;;;5.93;;
31872;SDS011;22407;42.820;23.374;2024-03-06T11:52:05;13.10;;;6.07;;
31872;SDS011;22407;42.820;23.374;2024-03-06T11:54:35;13.93;;;6.20;;
31872;SDS011;22407;42.820;23.374;2024-03-06T11:57:01;14.75;;;6.60;;
31872;SDS011;22407;42.820;23.374;2024-03-06T12:01:55;15.70;;;5.20;;
31872;SDS011;22407;42.820;23.374;2024-03-06T12:04:22;14.13;;;6.15;;
31872;SDS011;22407;42.820;23.374;2024-03-06T12:06:49;15.60;;;6.55;;
31872;SDS011;22407;42.820;23.374;2024-03-06T12:09:15;14.10;;;6.57;;
31872;SDS011;22407;42.820;23.374;2024-03-06T12:11:41;13.23;;;6.13;;
31872;SDS011;22407;42.820;23.374;2024-03-06T12:14:19;19.00;;;7.53;;
31872;SDS011;22407;42.820;23.374;2024-03-06T12:19:21;28.67;;;10.95;;
31872;SDS011;22407;42.820;23.374;2024-03-06T12:21:47;14.47;;;6.53;;
31872;SDS011;22407;42.820;23.374;2024-03-06T12:24:16;22.77;;;8.90;;
31872;SDS011;22407;42.820;23.374;2024-03-06T12:26:45;20.50;;;7.47;;
31872;SDS011;22407;42.820;23.374;2024-03-06T12:29:16;26.27;;;8.82;;
31872;SDS011;22407;42.820;23.374;2024-03-06T12:31:44;18.07;;;6.80;;
31872;SDS011;22407;42.820;23.374;2024-03-06T12:34:13;13.50;;;4.97;;
31872;SDS011;22407;42.820;23.374;2024-03-06T12:36:42;11.05;;;4.30;;
31872;SDS011;22407;42.820;23.374;2024-03-06T12:39:07;11.30;;;4.90;;
31872;SDS011;22407;42.820;23.374;2024-03-06T12:41:41;13.32;;;5.32;;
31872;SDS011;22407;42.820;23.374;2024-03-06T12:44:07;9.80;;;4.75;;
31872;SDS011;22407;42.820;23.374;2024-03-06T12:46:33;8.70;;;3.80;;
31872;SDS011;22407;42.820;23.374;2024-03-06T12:48:58;9.35;;;4.05;;
31872;SDS011;22407;42.820;23.374;2024-03-06T12:51:24;10.93;;;4.33;;
31872;SDS011;22407;42.820;23.374;2024-03-06T12:53:50;9.30;;;4.10;;
31872;SDS011;22407;42.820;23.374;2024-03-06T12:56:16;10.30;;;3.90;;
31872;SDS011;22407;42.820;23.374;2024-03-06T12:58:44;10.10;;;4.25;;
31872;SDS011;22407;42.820;23.374;2024-03-06T13:01:10;13.05;;;4.57;;
31872;SDS011;22407;42.820;23.374;2024-03-06T13:03:36;13.43;;;5.43;;
31872;SDS011;22407;42.820;23.374;2024-03-06T13:06:02;12.98;;;5.05;;
31872;SDS011;22407;42.820;23.374;2024-03-06T13:08:29;10.23;;;4.43;;
31872;SDS011;22407;42.820;23.374;2024-03-06T13:10:55;21.37;;;10.67;;
31872;SDS011;22407;42.820;23.374;2024-03-06T13:13:21;9.88;;;4.75;;
31872;SDS011;22407;42.820;23.374;2024-03-06T13:15:51;12.30;;;5.85;;
31872;SDS011;22407;42.820;23.374;2024-03-06T13:18:17;39.57;;;12.67;;
31872;SDS011;22407;42.820;23.374;2024-03-06T13:20:43;16.08;;;6.10;;
31872;SDS011;22407;42.820;23.374;2024-03-06T13:23:09;10.15;;;4.35;;
31872;SDS011;22407;42.820;23.374;2024-03-06T13:25:35;10.85;;;4.80;;
31872;SDS011;22407;42.820;23.374;2024-03-06T13:28:00;9.90;;;4.70;;
31872;SDS011;22407;42.820;23.374;2024-03-06T13:30:26;9.73;;;4.13;;
31872;SDS011;22407;42.820;23.374;2024-03-06T13:32:52;11.90;;;5.60;;
31872;SDS011;22407;42.820;23.374;2024-03-06T13:35:19;10.48;;;4.80;;
31872;SDS011;22407;42.820;23.374;2024-03-06T13:37:45;10.32;;;5.20;;
31872;SDS011;22407;42.820;23.374;2024-03-06T13:40:11;9.65;;;3.92;;
31872;SDS011;22407;42.820;23.374;2024-03-06T13:42:41;10.23;;;4.00;;
31872;SDS011;22407;42.820;23.374;2024-03-06T13:45:08;9.88;;;5.00;;
31872;SDS011;22407;42.820;23.374;2024-03-06T13:47:42;10.45;;;4.35;;
31872;SDS011;22407;42.820;23.374;2024-03-06T13:50:14;8.38;;;3.55;;
31872;SDS011;22407;42.820;23.374;2024-03-06T13:52:42;9.38;;;4.00;;
31872;SDS011;22407;42.820;23.374;2024-03-06T13:55:08;8.60;;;3.90;;
31872;SDS011;22407;42.820;23.374;2024-03-06T13:57:34;8.73;;;4.00;;
31872;SDS011;22407;42.820;23.374;2024-03-06T14:00:02;12.13;;;4.80;;
31872;SDS011;22407;42.820;23.374;2024-03-06T14:02:30;15.95;;;5.43;;
31872;SDS011;22407;42.820;23.374;2024-03-06T14:04:56;11.15;;;4.53;;
31872;SDS011;22407;42.820;23.374;2024-03-06T14:07:21;16.07;;;5.53;;
31872;SDS011;22407;42.820;23.374;2024-03-06T14:09:48;10.23;;;4.40;;
31872;SDS011;22407;42.820;23.374;2024-03-06T14:12:14;11.93;;;5.10;;
31872;SDS011;22407;42.820;23.374;2024-03-06T14:14:40;10.73;;;4.78;;
31872;SDS011;22407;42.820;23.374;2024-03-06T14:17:05;26.17;;;11.67;;
31872;SDS011;22407;42.820;23.374;2024-03-06T14:19:31;16.97;;;5.83;;
31872;SDS011;22407;42.820;23.374;2024-03-06T14:21:56;12.43;;;4.30;;